Time;durP1;ratioP1;P1;durP2;ratioP2;P2;SDS_P1;SDS_P2;PMS_P1;PMS_P2;Temp;Humidity;BMP_temperature;BMP_pressure;BME280_temperature;BME280_humidity;BME280_pressure;Samples;Min_cycle;Max_cycle;Signal;HPM_P1;HPM_P2
2021/01/09 00:02:52;;;;;;;10.10;8.65;;;;;;;3.61;67.29;100421.91;10390598;28;20333;-66
2021/01/09 00:07:53;;;;;;;10.85;8.52;;;;;;;3.74;66.37;100428.28;10402866;28;20107;-66
2021/01/09 00:12:54;;;;;;;10.98;8.60;;;;;;;3.81;65.35;100416.50;10382219;28;20142;-66
2021/01/09 00:17:55;;;;;;;9.80;8.02;;;;;;;4.00;64.82;100436.66;10387317;28;20091;-65
2021/01/09 00:22:57;;;;;;;11.00;8.95;;;;;;;4.06;64.36;100444.25;10381923;28;20144;-65
2021/01/09 00:27:58;;;;;;;10.93;8.32;;;;;;;3.99;64.18;100433.16;10382435;28;20069;-65
2021/01/09 00:32:59;;;;;;;9.20;8.02;;;;;;;4.00;64.28;100423.50;10381627;28;20146;-66
2021/01/09 00:38:00;;;;;;;9.50;8.23;;;;;;;4.01;64.11;100441.00;10386138;28;20081;-65
2021/01/09 00:43:01;;;;;;;9.52;8.15;;;;;;;3.92;63.88;100438.81;10378388;28;20595;-65
2021/01/09 00:48:03;;;;;;;10.90;8.80;;;;;;;3.58;64.65;100430.81;10383993;28;20176;-65
2021/01/09 00:53:05;;;;;;;10.50;8.80;;;;;;;3.69;65.62;100464.50;10378201;28;20057;-65
2021/01/09 00:58:06;;;;;;;10.27;8.23;;;;;;;3.90;65.68;100465.22;10384825;28;20392;-65
2021/01/09 01:03:07;;;;;;;11.05;7.90;;;;;;;3.88;65.45;100473.22;10387604;28;20462;-67
2021/01/09 01:08:08;;;;;;;10.20;8.88;;;;;;;3.83;65.41;100474.38;10393156;28;20137;-65
2021/01/09 01:13:09;;;;;;;10.48;9.07;;;;;;;3.92;65.51;100476.56;10393051;28;20474;-66
2021/01/09 01:18:11;;;;;;;11.35;9.32;;;;;;;3.97;64.98;100481.59;10399857;28;20557;-65
2021/01/09 01:23:12;;;;;;;10.25;8.65;;;;;;;3.99;64.81;100487.63;10402364;28;20049;-65
2021/01/09 01:28:13;;;;;;;10.88;8.90;;;;;;;3.98;64.97;100488.56;10391679;28;20107;-66
2021/01/09 01:33:15;;;;;;;11.07;8.98;;;;;;;3.91;65.04;100487.16;10389572;28;20095;-66
2021/01/09 01:38:16;;;;;;;9.32;7.93;;;;;;;4.05;64.35;100495.22;10388465;28;20133;-65
2021/01/09 01:43:17;;;;;;;10.73;8.63;;;;;;;3.96;64.66;100496.53;10385049;28;20042;-65
2021/01/09 01:48:19;;;;;;;9.55;8.30;;;;;;;3.93;64.74;100498.47;10389512;28;20049;-66
2021/01/09 01:53:20;;;;;;;10.05;8.73;;;;;;;3.91;64.32;100500.34;10386541;28;20670;-65
2021/01/09 01:58:22;;;;;;;9.93;8.82;;;;;;;3.94;64.22;100502.81;10388886;28;20057;-65
2021/01/09 02:03:23;;;;;;;9.00;7.65;;;;;;;3.93;64.30;100499.31;10393367;28;20508;-66
2021/01/09 02:08:30;;;;;;;11.32;8.63;;;;;;;3.89;64.25;100496.00;10387426;28;20053;-65
2021/01/09 02:13:43;;;;;;;11.82;8.80;;;;;;;3.87;64.41;100495.22;10380597;28;20132;-65
2021/01/09 02:18:45;;;;;;;10.25;7.75;;;;;;;3.87;64.34;100496.97;10384195;28;20057;-66
2021/01/09 02:23:47;;;;;;;9.23;8.27;;;;;;;3.83;64.26;100490.19;10382384;28;20061;-66
2021/01/09 02:28:48;;;;;;;9.40;7.68;;;;;;;3.86;64.20;100490.88;10381867;28;20080;-67
2021/01/09 02:33:49;;;;;;;10.25;7.93;;;;;;;3.79;63.67;100478.94;10385330;28;20106;-66
2021/01/09 02:38:51;;;;;;;8.95;8.05;;;;;;;3.88;63.14;100502.19;10379554;28;20042;-65
2021/01/09 02:43:52;;;;;;;8.07;6.63;;;;;;;3.70;62.72;100485.47;10375072;28;20533;-65
2021/01/09 02:48:53;;;;;;;6.88;6.18;;;;;;;3.73;63.17;100471.34;10398389;28;20042;-65
2021/01/09 02:53:54;;;;;;;9.20;7.55;;;;;;;3.75;62.54;100492.31;10385772;28;20123;-65
2021/01/09 02:58:56;;;;;;;7.15;6.35;;;;;;;3.82;62.60;100510.38;10387986;28;20045;-65
2021/01/09 03:03:58;;;;;;;7.68;6.88;;;;;;;3.93;62.34;100527.44;10390722;28;20120;-65
2021/01/09 03:08:59;;;;;;;7.63;6.70;;;;;;;3.86;62.32;100522.47;10388997;28;20068;-65
2021/01/09 03:14:01;;;;;;;9.07;7.18;;;;;;;3.87;62.05;100537.38;10371708;28;20041;-65
2021/01/09 03:19:02;;;;;;;7.63;6.85;;;;;;;3.89;62.33;100548.66;10381946;28;20461;-65
2021/01/09 03:24:04;;;;;;;8.48;6.85;;;;;;;3.86;61.96;100535.66;10357568;28;20116;-65
2021/01/09 03:29:05;;;;;;;8.35;7.35;;;;;;;3.86;62.06;100535.66;10375363;28;20057;-66
2021/01/09 03:34:06;;;;;;;7.93;6.90;;;;;;;3.76;61.98;100531.75;10382713;28;20138;-67
2021/01/09 03:39:07;;;;;;;8.07;6.70;;;;;;;3.85;62.05;100541.84;10375692;28;20237;-65
2021/01/09 03:44:09;;;;;;;8.20;6.55;;;;;;;3.67;62.03;100521.66;10383100;28;20049;-66
2021/01/09 03:49:10;;;;;;;9.60;6.70;;;;;;;3.72;62.34;100530.19;10386600;28;20053;-65
2021/01/09 03:54:12;;;;;;;7.93;6.90;;;;;;;3.67;62.45;100527.75;10380594;28;20052;-66
2021/01/09 03:59:13;;;;;;;8.93;7.22;;;;;;;3.65;62.52;100527.00;10381381;28;20069;-66
2021/01/09 04:04:15;;;;;;;8.38;7.45;;;;;;;3.78;62.72;100529.03;10387290;28;20045;-65
2021/01/09 04:09:16;;;;;;;10.18;8.68;;;;;;;3.68;63.06;100521.59;10381870;28;20065;-66
2021/01/09 04:14:17;;;;;;;9.80;8.27;;;;;;;3.73;63.22;100534.53;10379302;28;20483;-66
2021/01/09 04:19:19;;;;;;;9.98;8.20;;;;;;;3.70;63.47;100534.66;10386733;28;20066;-66
2021/01/09 04:24:22;;;;;;;10.35;7.90;;;;;;;3.70;63.63;100532.03;10383927;28;20080;-65
2021/01/09 04:29:23;;;;;;;10.10;7.65;;;;;;;3.79;63.46;100531.59;10386453;28;20053;-65
2021/01/09 04:34:26;;;;;;;10.82;8.57;;;;;;;3.76;63.77;100539.63;10381595;28;20050;-65
2021/01/09 04:39:27;;;;;;;9.07;8.05;;;;;;;3.68;64.13;100539.16;10383122;28;20048;-65
2021/01/09 04:44:28;;;;;;;10.25;8.07;;;;;;;3.66;64.10;100544.50;10379211;28;20048;-65
2021/01/09 04:49:30;;;;;;;8.95;7.30;;;;;;;3.70;64.09;100547.84;10388240;28;20056;-66
2021/01/09 04:54:35;;;;;;;11.82;8.77;;;;;;;3.61;64.32;100537.75;10387336;28;20385;-65
2021/01/09 04:59:37;;;;;;;9.23;8.27;;;;;;;3.74;64.54;100565.22;10385518;28;20420;-66
2021/01/09 05:04:46;;;;;;;11.20;9.38;;;;;;;3.73;64.87;100563.50;10357229;28;20058;-66
2021/01/09 05:09:47;;;;;;;10.23;8.45;;;;;;;3.76;65.34;100563.34;10380211;28;20053;-66
2021/01/09 05:14:49;;;;;;;9.30;7.95;;;;;;;3.66;65.39;100567.31;10373313;28;20056;-66
2021/01/09 05:19:51;;;;;;;11.93;9.18;;;;;;;3.63;65.33;100564.84;10384120;28;20062;-65
2021/01/09 05:24:53;;;;;;;11.50;9.63;;;;;;;3.54;65.78;100574.88;10385435;28;20504;-66
2021/01/09 05:29:55;;;;;;;11.68;9.52;;;;;;;3.66;66.00;100580.50;10383399;28;20065;-66
2021/01/09 05:34:56;;;;;;;12.25;9.77;;;;;;;3.70;65.44;100582.91;10381299;28;20107;-66
2021/01/09 05:39:58;;;;;;;12.07;9.60;;;;;;;3.63;65.81;100578.00;10373549;28;20057;-65
2021/01/09 05:45:00;;;;;;;13.02;9.98;;;;;;;3.66;66.23;100598.91;10384254;28;20424;-67
2021/01/09 05:50:01;;;;;;;13.23;10.60;;;;;;;3.75;65.96;100590.59;10376850;28;20064;-65
2021/01/09 05:55:04;;;;;;;12.32;10.57;;;;;;;3.76;65.88;100608.09;10384096;28;20060;-67
2021/01/09 06:00:08;;;;;;;12.68;10.52;;;;;;;3.74;65.71;100612.59;10403968;28;20053;-68
2021/01/09 06:05:10;;;;;;;12.45;9.43;;;;;;;3.81;65.94;100608.72;10395114;28;20499;-65
2021/01/09 06:10:12;;;;;;;11.75;9.93;;;;;;;3.55;65.95;100594.16;10374849;28;20053;-68
2021/01/09 06:15:14;;;;;;;13.50;11.18;;;;;;;3.61;66.04;100616.72;10389360;28;20163;-64
2021/01/09 06:20:16;;;;;;;12.55;10.07;;;;;;;3.67;66.40;100621.69;10386874;28;20126;-65
2021/01/09 06:25:18;;;;;;;13.65;10.73;;;;;;;3.61;66.34;100617.56;10389976;28;20128;-65
2021/01/09 06:30:21;;;;;;;12.73;10.52;;;;;;;3.22;66.61;100560.56;10386884;28;20045;-67
2021/01/09 06:35:23;;;;;;;15.73;11.63;;;;;;;3.60;66.40;100615.00;10389368;28;20628;-63
2021/01/09 06:40:24;;;;;;;13.38;10.88;;;;;;;3.57;66.29;100609.88;10396331;28;20132;-67
2021/01/09 06:45:29;;;;;;;12.00;10.20;;;;;;;3.65;66.11;100629.66;10393911;28;20155;-65
2021/01/09 06:50:33;;;;;;;13.43;12.02;;;;;;;3.61;66.12;100633.34;10404584;28;20137;-64
2021/01/09 06:55:36;;;;;;;13.10;10.55;;;;;;;3.57;66.59;100638.84;10402766;28;20226;-65
2021/01/09 07:00:38;;;;;;;13.57;10.50;;;;;;;3.53;66.47;100641.59;10402131;28;20073;-65
2021/01/09 07:05:56;;;;;;;14.30;11.88;;;;;;;3.45;66.56;100645.50;10401386;28;20053;-65
2021/01/09 07:11:02;;;;;;;14.13;10.40;;;;;;;3.46;66.95;100661.22;10382461;28;20063;-64
2021/01/09 07:16:09;;;;;;;12.82;9.98;;;;;;;3.39;66.82;100649.25;10391831;28;20057;-65
2021/01/09 07:21:15;;;;;;;14.32;10.07;;;;;;;3.34;66.80;100653.88;10390445;28;20157;-64
2021/01/09 07:26:20;;;;;;;11.45;9.90;;;;;;;3.41;66.95;100679.00;10412398;28;20045;-64
2021/01/09 07:31:27;;;;;;;12.52;9.32;;;;;;;3.28;67.30;100664.69;10397700;28;20573;-64
2021/01/09 07:36:31;;;;;;;11.43;9.73;;;;;;;3.30;67.06;100683.88;10422923;28;20053;-64
2021/01/09 07:41:36;;;;;;;11.93;9.23;;;;;;;3.40;66.80;100697.50;10394170;28;20140;-63
2021/01/09 07:46:51;;;;;;;11.98;9.82;;;;;;;3.31;66.97;100688.22;10387249;28;20045;-64
2021/01/09 07:52:01;;;;;;;12.15;9.20;;;;;;;3.43;67.03;100711.38;10389929;28;20573;-64
2021/01/09 07:57:19;;;;;;;11.63;9.15;;;;;;;3.50;66.53;100714.59;10386334;22;20239;-60
2021/01/09 08:02:24;;;;;;;10.07;8.57;;;;;;;3.43;66.52;100706.09;10333938;28;20272;-59
2021/01/09 08:07:25;;;;;;;;;;;;;;;3.33;66.80;100718.81;10329296;28;20053;-61
2021/01/09 08:12:27;;;;;;;10.52;8.30;;;;;;;3.30;66.88;100733.88;10321878;28;19929;-61
2021/01/09 08:17:29;;;;;;;10.93;8.68;;;;;;;3.27;66.96;100734.88;10327059;28;20060;-59
2021/01/09 08:22:30;;;;;;;10.50;9.15;;;;;;;3.26;67.09;100745.44;10302881;28;20789;-59
2021/01/09 08:27:32;;;;;;;11.88;9.75;;;;;;;3.32;67.11;100753.09;10276114;28;21217;-59
2021/01/09 08:32:33;;;;;;;12.60;9.52;;;;;;;3.35;66.85;100752.97;10318311;28;20049;-58
2021/01/09 08:37:35;;;;;;;10.15;8.50;;;;;;;3.52;66.74;100758.34;10330734;28;20046;-59
2021/01/09 08:42:36;;;;;;;12.75;9.15;;;;;;;3.58;66.78;100761.66;10327214;28;20061;-59
2021/01/09 08:47:43;;;;;;;9.10;7.32;;;;;;;3.47;66.24;100768.22;10328549;28;20045;-59
2021/01/09 08:52:48;;;;;;;10.15;7.85;;;;;;;3.17;66.37;100762.50;10327920;28;20061;-59
2021/01/09 08:57:49;;;;;;;11.23;9.25;;;;;;;3.05;67.39;100777.00;10328705;28;20061;-58
2021/01/09 09:02:51;;;;;;;11.57;9.00;;;;;;;3.10;67.37;100779.44;10331269;28;20292;-58
2021/01/09 09:07:56;;;;;;;11.15;8.52;;;;;;;3.18;66.94;100780.84;10328062;28;20191;-60
2021/01/09 09:13:21;;;;;;;10.77;9.05;;;;;;;3.48;66.11;100775.22;10324060;28;20410;-58
2021/01/09 09:18:31;;;;;;;12.43;9.70;;;;;;;3.65;66.12;100785.00;10329861;28;20154;-60
2021/01/09 09:23:32;;;;;;;10.80;7.90;;;;;;;3.78;65.53;100777.41;10351895;28;20045;-58
2021/01/09 09:28:51;;;;;;;10.35;8.48;;;;;;;3.83;65.23;100791.25;10357855;28;20053;-59
2021/01/09 09:34:05;;;;;;;9.02;7.43;;;;;;;3.94;63.60;100789.94;10357023;28;20153;-59
2021/01/09 09:39:14;;;;;;;9.38;7.68;;;;;;;4.04;63.34;100791.25;10373340;28;20065;-59
2021/01/09 09:44:16;;;;;;;10.60;7.90;;;;;;;4.13;63.24;100788.19;10355577;28;20305;-59
2021/01/09 09:49:17;;;;;;;9.90;8.45;;;;;;;3.83;63.72;100796.53;10358761;28;20057;-59
2021/01/09 09:54:31;;;;;;;11.27;8.15;;;;;;;4.04;63.26;100793.88;10357709;28;20704;-59
2021/01/09 09:59:34;;;;;;;8.90;8.00;;;;;;;4.31;62.61;100796.16;10354701;28;20608;-59
2021/01/09 10:04:43;;;;;;;11.27;8.50;;;;;;;4.52;61.97;100787.28;10357464;28;20194;-60
2021/01/09 10:09:55;;;;;;;8.85;7.75;;;;;;;4.74;61.09;100795.03;10332558;28;20041;-58
2021/01/09 10:14:56;;;;;;;10.90;8.38;;;;;;;4.91;60.85;100791.59;10346309;28;20132;-59
2021/01/09 10:19:58;;;;;;;8.73;6.95;;;;;;;5.13;59.81;100787.88;10330354;28;20537;-58
2021/01/09 10:24:59;;;;;;;8.23;6.88;;;;;;;5.20;59.20;100789.31;10309500;28;20041;-60
2021/01/09 10:30:00;;;;;;;8.93;6.88;;;;;;;5.51;58.84;100782.50;10315544;28;20479;-60
2021/01/09 10:35:02;;;;;;;7.05;6.15;;;;;;;5.94;56.07;100782.88;10324093;28;20149;-59
2021/01/09 10:40:05;;;;;;;7.65;5.57;;;;;;;6.33;54.05;100787.00;10334692;28;20057;-59
2021/01/09 10:45:07;;;;;;;7.22;4.97;;;;;;;6.86;51.17;100778.84;10330230;28;20060;-60
2021/01/09 10:50:12;;;;;;;9.52;4.97;;;;;;;9.86;44.41;100775.16;10374328;28;20060;-60
2021/01/09 10:55:14;;;;;;;4.55;3.55;;;;;;;9.71;42.87;100750.47;10360986;28;20045;-60
2021/01/09 11:00:17;;;;;;;5.13;4.32;;;;;;;7.65;47.43;100776.94;10352638;28;20053;-59
2021/01/09 11:05:19;;;;;;;4.60;3.83;;;;;;;6.68;50.18;100773.66;10353702;28;20698;-58
2021/01/09 11:10:21;;;;;;;5.95;5.10;;;;;;;6.08;52.05;100779.56;10356838;28;20974;-58
2021/01/09 11:15:43;;;;;;;5.93;4.97;;;;;;;5.66;52.55;100779.06;10323371;28;20058;-58
2021/01/09 11:20:47;;;;;;;7.15;5.00;;;;;;;5.56;54.35;100792.81;10325825;28;20053;-60
2021/01/09 11:25:52;;;;;;;5.17;4.63;;;;;;;5.48;53.98;100795.84;10321080;28;20140;-59
2021/01/09 11:30:55;;;;;;;6.50;5.78;;;;;;;5.15;54.76;100799.25;10337684;28;20065;-59
2021/01/09 11:36:01;;;;;;;6.38;5.78;;;;;;;5.12;55.00;100804.69;10326690;28;20061;-59
2021/01/09 11:41:03;;;;;;;6.18;5.50;;;;;;;5.16;55.54;100798.28;10331357;28;20060;-59
2021/01/09 11:46:07;;;;;;;5.90;5.20;;;;;;;5.08;55.49;100803.09;10326033;28;20140;-59
2021/01/09 11:51:09;;;;;;;8.18;6.32;;;;;;;5.03;55.34;100798.06;10325194;28;20061;-58
2021/01/09 11:56:11;;;;;;;8.02;7.03;;;;;;;5.04;56.17;100802.38;10356187;28;20056;-59
2021/01/09 12:01:12;;;;;;;7.20;5.70;;;;;;;4.94;56.73;100794.06;10351642;28;20493;-59
2021/01/09 12:06:17;;;;;;;7.15;6.40;;;;;;;4.96;56.74;100805.41;10368930;28;20107;-59
2021/01/09 12:11:20;;;;;;;7.65;6.85;;;;;;;4.93;57.14;100800.28;10357920;28;20045;-59
2021/01/09 12:16:29;;;;;;;8.77;7.07;;;;;;;4.80;57.40;100803.56;10362892;28;20060;-60
2021/01/09 12:21:31;;;;;;;8.48;6.40;;;;;;;4.92;56.58;100806.50;10365672;28;20127;-59
2021/01/09 12:26:32;;;;;;;8.80;6.47;;;;;;;4.87;56.81;100800.56;10348283;28;20069;-63
2021/01/09 12:31:35;;;;;;;7.82;7.03;;;;;;;4.80;56.52;100799.16;10347206;28;20112;-60
2021/01/09 12:36:52;;;;;;;8.35;6.32;;;;;;;4.78;57.21;100806.28;10339534;28;20056;-59
2021/01/09 12:41:53;;;;;;;7.55;6.60;;;;;;;4.56;57.42;100796.75;10357747;28;20053;-62
2021/01/09 12:46:55;;;;;;;13.38;12.05;;;;;;;4.52;57.61;100792.56;10357586;28;20073;-60
2021/01/09 12:51:58;;;;;;;8.55;7.55;;;;;;;4.66;57.66;100801.59;10358263;28;20065;-60
2021/01/09 12:56:59;;;;;;;7.75;6.65;;;;;;;4.66;57.65;100801.59;10347401;28;20132;-59
2021/01/09 13:02:01;;;;;;;7.60;6.82;;;;;;;4.56;58.21;100790.63;10355910;28;20140;-60
2021/01/09 13:07:02;;;;;;;7.82;6.97;;;;;;;4.48;59.59;100793.63;10366627;28;20653;-59
2021/01/09 13:12:06;;;;;;;10.48;8.07;;;;;;;4.60;58.32;100797.47;10365690;28;20064;-59
2021/01/09 13:17:11;;;;;;;8.48;6.88;;;;;;;4.65;58.79;100797.25;10362883;28;20046;-60
2021/01/09 13:22:13;;;;;;;9.40;7.80;;;;;;;4.62;58.51;100798.22;10357649;28;20057;-59
2021/01/09 13:27:15;;;;;;;8.25;7.38;;;;;;;4.59;58.13;100785.19;10352239;28;20049;-58
2021/01/09 13:32:23;;;;;;;8.85;6.63;;;;;;;4.76;58.45;100789.69;10369913;28;20645;-59
2021/01/09 13:37:24;;;;;;;7.45;6.53;;;;;;;13.18;38.71;100778.56;10361088;28;20061;-57
2021/01/09 13:42:25;;;;;;;8.60;6.65;;;;;;;16.92;30.56;100773.34;10368818;28;20049;-60
2021/01/09 13:47:31;;;;;;;7.43;6.72;;;;;;;18.43;27.18;100780.53;10363621;28;20053;-62
2021/01/09 13:52:33;;;;;;;6.60;5.93;;;;;;;17.88;26.96;100779.88;10369880;28;20410;-61
2021/01/09 13:57:35;;;;;;;5.97;5.47;;;;;;;12.55;35.07;100789.91;10386593;22;20422;-64
2021/01/09 14:02:36;;;;;;;8.55;6.38;;;;;;;9.95;40.68;100784.28;10393865;28;20609;-64
2021/01/09 14:07:37;;;;;;;7.28;6.57;;;;;;;8.67;44.85;100800.72;10359018;28;20076;-65
2021/01/09 14:12:38;;;;;;;7.05;5.85;;;;;;;7.63;46.41;100803.53;10347640;28;20574;-65
2021/01/09 14:17:40;;;;;;;7.55;6.80;;;;;;;7.19;47.68;100817.56;10344232;28;20053;-64
2021/01/09 14:22:41;;;;;;;7.25;6.50;;;;;;;6.49;48.42;100815.28;10343446;28;20129;-64
2021/01/09 14:27:42;;;;;;;6.57;5.97;;;;;;;6.14;49.63;100820.66;10343553;28;20057;-64
2021/01/09 14:32:43;;;;;;;6.63;5.95;;;;;;;5.80;50.53;100832.97;10341002;28;20116;-65
2021/01/09 14:37:45;;;;;;;7.28;6.10;;;;;;;5.84;50.79;100837.19;10341711;28;20578;-65
2021/01/09 14:42:47;;;;;;;6.13;5.53;;;;;;;5.80;50.84;100827.69;10343590;28;20045;-64
2021/01/09 14:47:49;;;;;;;6.88;6.15;;;;;;;5.79;50.96;100839.19;10338227;28;20053;-65
2021/01/09 14:52:51;;;;;;;6.13;5.40;;;;;;;5.41;51.30;100820.84;10344442;28;20049;-63
2021/01/09 14:57:53;;;;;;;6.47;5.88;;;;;;;5.22;52.27;100832.28;10348686;28;20147;-65
2021/01/09 15:02:54;;;;;;;6.88;6.18;;;;;;;4.89;53.14;100830.34;10349050;28;20046;-65
2021/01/09 15:07:55;;;;;;;5.32;4.82;;;;;;;4.84;53.54;100831.53;10348905;28;20046;-64
2021/01/09 15:13:05;;;;;;;5.90;5.03;;;;;;;4.67;53.84;100848.13;10348426;28;20046;-65
2021/01/09 15:23:55;;;;;;;9.52;7.72;;;;;;;4.28;54.88;100838.47;10344423;28;20499;-66
2021/01/09 15:28:56;;;;;;;8.07;7.22;;;;;;;4.21;55.56;100851.06;10362198;28;20073;-65
2021/01/09 15:33:57;;;;;;;6.75;6.07;;;;;;;4.06;55.79;100839.44;10351771;28;20088;-67
2021/01/09 15:39:00;;;;;;;7.07;6.38;;;;;;;3.94;56.43;100861.06;10354095;28;20050;-65
2021/01/09 15:44:02;;;;;;;6.95;6.30;;;;;;;3.93;56.07;100864.59;10342132;28;20041;-65
2021/01/09 15:49:04;;;;;;;7.18;6.47;;;;;;;3.81;56.49;100851.00;10341985;28;20789;-65
2021/01/09 15:54:06;;;;;;;7.80;6.40;;;;;;;3.94;56.25;100868.94;10358828;28;20576;-65
2021/01/09 15:59:09;;;;;;;7.65;6.55;;;;;;;3.84;56.72;100872.00;10356724;28;20108;-66
2021/01/09 16:04:11;;;;;;;6.38;5.78;;;;;;;3.87;56.96;100877.13;10345145;28;20100;-65
2021/01/09 16:09:12;;;;;;;6.70;6.00;;;;;;;3.77;57.33;100867.91;10343761;28;20085;-65
2021/01/09 16:14:13;;;;;;;6.40;5.78;;;;;;;3.79;56.95;100873.94;10344142;28;20100;-66
2021/01/09 16:19:14;;;;;;;6.45;5.85;;;;;;;3.50;56.98;100828.63;10345279;28;20128;-65
2021/01/09 16:24:16;;;;;;;8.35;5.90;;;;;;;3.58;57.51;100848.53;10347384;28;20053;-65
2021/01/09 16:29:17;;;;;;;6.65;5.68;;;;;;;3.53;58.55;100841.66;10345107;28;20133;-66
2021/01/09 16:34:18;;;;;;;7.28;6.30;;;;;;;3.05;57.80;100782.25;10343526;28;20077;-65
2021/01/09 16:39:39;;;;;;;8.45;7.55;;;;;;;3.36;58.17;100844.13;10341366;28;20054;-66
2021/01/09 16:44:41;;;;;;;8.20;7.40;;;;;;;3.54;58.26;100858.31;10341780;28;20532;-65
2021/01/09 16:49:42;;;;;;;7.47;6.78;;;;;;;3.54;57.99;100858.31;10352545;28;20045;-66
2021/01/09 16:54:43;;;;;;;8.20;7.25;;;;;;;3.36;58.62;100855.53;10347345;28;20420;-65
2021/01/09 16:59:44;;;;;;;7.50;6.65;;;;;;;3.17;58.42;100833.53;10354710;28;20457;-65
2021/01/09 17:04:47;;;;;;;6.82;6.13;;;;;;;3.24;58.66;100858.63;10342635;28;20060;-64
2021/01/09 17:09:50;;;;;;;8.35;7.55;;;;;;;3.23;59.10;100877.13;10332740;28;20157;-65
2021/01/09 17:14:52;;;;;;;10.10;7.90;;;;;;;3.07;59.09;100875.09;10339460;28;20084;-65
2021/01/09 17:19:53;;;;;;;8.07;7.25;;;;;;;3.14;59.65;100876.59;10335289;28;20069;-64
2021/01/09 17:24:54;;;;;;;9.77;8.00;;;;;;;3.16;59.43;100864.22;10335370;28;20053;-65
2021/01/09 17:29:57;;;;;;;9.27;7.80;;;;;;;3.22;59.47;100862.28;10337211;28;20129;-66
2021/01/09 17:34:59;;;;;;;8.95;7.88;;;;;;;3.34;59.58;100883.66;10329857;28;20054;-65
2021/01/09 17:40:00;;;;;;;11.75;8.30;;;;;;;3.36;59.27;100871.31;10335398;28;20137;-66
2021/01/09 17:45:01;;;;;;;8.30;7.47;;;;;;;3.33;59.24;100865.31;10319884;28;20080;-65
2021/01/09 17:50:04;;;;;;;9.18;8.07;;;;;;;3.66;58.90;100892.06;10338285;28;20049;-66
2021/01/09 17:55:06;;;;;;;8.77;7.88;;;;;;;3.52;58.74;100889.97;10340587;28;20132;-66
2021/01/09 18:00:08;;;;;;;8.20;7.40;;;;;;;3.40;58.99;100895.72;10340069;28;20058;-65
2021/01/09 18:05:10;;;;;;;7.18;6.45;;;;;;;3.35;58.92;100903.81;10335989;28;20574;-65
2021/01/09 18:10:12;;;;;;;8.98;7.22;;;;;;;3.46;58.82;100913.06;10335858;28;20520;-65
2021/01/09 18:15:13;;;;;;;6.72;6.13;;;;;;;3.74;57.50;100914.56;10336782;28;20053;-66
2021/01/09 18:20:14;;;;;;;6.53;5.32;;;;;;;3.69;57.24;100920.88;10336676;28;20053;-66
2021/01/09 18:25:16;;;;;;;6.18;5.40;;;;;;;3.60;57.08;100925.66;10331677;28;20100;-65
2021/01/09 18:30:17;;;;;;;7.45;6.35;;;;;;;3.58;56.98;100912.56;10338093;28;20135;-65
2021/01/09 18:35:19;;;;;;;9.00;8.10;;;;;;;3.74;57.39;100931.22;10339293;28;20057;-65
2021/01/09 18:40:21;;;;;;;8.75;7.63;;;;;;;3.70;58.43;100927.00;10340633;28;20061;-64
2021/01/09 18:45:23;;;;;;;8.18;6.82;;;;;;;3.71;58.21;100940.09;10338719;28;20058;-64
2021/01/09 18:50:44;;;;;;;9.70;8.70;;;;;;;3.75;58.21;100938.19;10335328;28;20046;-65
2021/01/09 18:56:06;;;;;;;7.63;6.90;;;;;;;3.70;57.95;100941.00;10336452;28;20469;-64
2021/01/09 19:01:07;;;;;;;7.90;7.07;;;;;;;3.67;57.29;100942.94;10342265;28;20046;-64
2021/01/09 19:06:09;;;;;;;9.55;7.63;;;;;;;3.75;57.87;100939.97;10339071;28;20050;-66
2021/01/09 19:11:30;;;;;;;8.07;7.28;;;;;;;3.72;57.99;100947.09;10350886;28;20057;-65
2021/01/09 19:16:32;;;;;;;7.57;6.78;;;;;;;3.78;57.54;100929.31;10334740;28;20137;-65
2021/01/09 19:21:33;;;;;;;9.35;6.93;;;;;;;3.93;57.08;100956.78;10337434;28;20058;-65
2021/01/09 19:26:36;;;;;;;7.70;6.90;;;;;;;3.49;57.65;100939.25;10340139;28;20057;-65
2021/01/09 19:31:38;;;;;;;6.43;5.78;;;;;;;3.45;58.12;100963.97;10338861;28;20622;-66
2021/01/09 19:36:40;;;;;;;8.40;7.57;;;;;;;3.44;58.23;100947.34;10338865;28;20597;-66
2021/01/09 19:41:41;;;;;;;8.18;6.97;;;;;;;3.51;57.77;100937.41;10341107;28;20727;-66
2021/01/09 19:46:44;;;;;;;8.57;7.75;;;;;;;3.52;58.14;100950.50;10336034;28;20136;-65
2021/01/09 19:51:51;;;;;;;9.15;7.80;;;;;;;3.50;58.48;100964.69;10338314;28;20045;-66
2021/01/09 19:56:57;;;;;;;8.85;7.05;;;;;;;3.45;58.41;100962.22;10336558;28;20046;-66
2021/01/09 20:01:58;;;;;;;9.02;7.90;;;;;;;3.47;58.16;100960.38;10337071;28;20049;-65
2021/01/09 20:06:59;;;;;;;9.60;8.60;;;;;;;3.43;58.77;100971.09;10336607;28;20083;-65
2021/01/09 20:12:01;;;;;;;9.93;8.93;;;;;;;3.51;58.52;100969.00;10335493;28;20547;-65
2021/01/09 20:17:02;;;;;;;11.20;9.40;;;;;;;3.49;58.52;100950.63;10384075;22;20604;-68
2021/01/09 20:22:04;;;;;;;8.90;7.95;;;;;;;3.51;58.25;100956.72;10407081;28;20048;-69
2021/01/09 20:27:05;;;;;;;8.45;7.65;;;;;;;3.46;58.47;100971.81;10409256;28;20053;-70
2021/01/09 20:32:09;;;;;;;10.25;8.48;;;;;;;3.34;59.00;100969.66;10424137;28;20053;-69
2021/01/09 20:37:12;;;;;;;9.10;7.97;;;;;;;3.40;58.37;100972.06;10434435;28;20500;-69
2021/01/09 20:42:14;;;;;;;8.50;6.75;;;;;;;3.35;58.08;100974.03;10397790;28;20060;-68
2021/01/09 20:47:15;;;;;;;9.45;7.85;;;;;;;3.17;59.00;100965.91;10398644;28;20207;-68
2021/01/09 20:52:16;;;;;;;9.40;8.48;;;;;;;3.14;59.44;100981.81;10391965;28;20132;-68
2021/01/09 20:57:19;;;;;;;12.50;9.70;;;;;;;3.05;60.03;100976.91;10388372;28;20057;-67
2021/01/09 21:02:21;;;;;;;10.82;9.48;;;;;;;2.98;60.49;100983.31;10388633;28;20125;-66
2021/01/09 21:07:28;;;;;;;10.88;9.23;;;;;;;2.89;61.05;100987.13;10388696;28;20045;-69
2021/01/09 21:12:30;;;;;;;10.15;8.93;;;;;;;2.92;61.55;100988.81;10386428;28;20511;-67
2021/01/09 21:17:32;;;;;;;13.73;11.13;;;;;;;2.97;60.97;100989.47;10384876;28;20042;-69
2021/01/09 21:22:33;;;;;;;10.40;9.20;;;;;;;3.05;61.30;100991.81;10407631;28;20814;-70
2021/01/09 21:27:37;;;;;;;10.43;8.88;;;;;;;3.04;60.11;101005.91;10412013;28;20057;-70
2021/01/09 21:32:38;;;;;;;10.82;8.25;;;;;;;3.07;60.16;100995.25;10402786;28;20076;-68
2021/01/09 21:37:39;;;;;;;8.82;7.80;;;;;;;2.99;59.58;100988.50;10409921;28;20655;-67
2021/01/09 21:42:41;;;;;;;9.05;7.13;;;;;;;3.00;60.00;100999.88;10422865;28;20598;-69
2021/01/09 21:47:42;;;;;;;8.48;7.60;;;;;;;2.98;59.52;100985.94;10420870;28;20064;-69
2021/01/09 21:52:44;;;;;;;9.15;7.95;;;;;;;2.96;59.78;100995.66;10412247;28;20072;-70
2021/01/09 21:57:45;;;;;;;8.65;6.88;;;;;;;2.87;59.44;100983.72;10407911;28;20095;-67
2021/01/09 22:02:46;;;;;;;9.25;7.57;;;;;;;2.92;59.89;101007.22;10408293;28;20606;-69
2021/01/09 22:07:48;;;;;;;7.20;6.50;;;;;;;2.81;59.91;100989.19;10414291;28;20049;-69
2021/01/09 22:12:51;;;;;;;7.90;7.07;;;;;;;2.85;59.88;100998.66;10414333;28;20044;-71
2021/01/09 22:17:52;;;;;;;8.23;7.38;;;;;;;2.87;59.60;100999.50;10412905;28;20667;-70
2021/01/09 22:22:54;;;;;;;9.13;7.90;;;;;;;2.74;60.34;100999.06;10415468;28;20045;-69
2021/01/09 22:27:56;;;;;;;8.57;7.68;;;;;;;2.74;60.32;100999.06;10418876;28;20085;-69
2021/01/09 22:32:57;;;;;;;10.32;7.97;;;;;;;2.70;60.02;100994.81;10440051;28;20060;-69
2021/01/09 22:37:58;;;;;;;9.32;8.13;;;;;;;2.68;60.47;100994.03;10472411;28;20052;-70
2021/01/09 22:42:59;;;;;;;9.57;8.55;;;;;;;2.75;60.77;100990.28;10456338;28;20060;-67
2021/01/09 22:48:01;;;;;;;8.70;7.53;;;;;;;2.65;60.65;100994.13;10440091;28;20190;-70
2021/01/09 22:53:02;;;;;;;9.00;7.78;;;;;;;2.65;61.10;100994.13;10439927;28;20690;-68
2021/01/09 22:58:04;;;;;;;9.75;8.35;;;;;;;2.59;61.60;100983.84;10433541;28;20508;-70
2021/01/09 23:03:06;;;;;;;9.05;8.15;;;;;;;2.52;61.46;100990.22;10429438;28;20057;-68
2021/01/09 23:08:07;;;;;;;10.55;8.93;;;;;;;2.46;61.74;100994.81;10422920;28;20053;-70
2021/01/09 23:13:09;;;;;;;9.23;8.30;;;;;;;2.46;61.98;100989.53;10424641;28;20110;-69
2021/01/09 23:18:10;;;;;;;10.00;8.85;;;;;;;2.47;62.27;100991.25;10424191;28;20052;-69
2021/01/09 23:23:13;;;;;;;10.55;9.45;;;;;;;2.46;62.13;100986.91;10422085;28;20137;-68
2021/01/09 23:28:15;;;;;;;9.48;8.13;;;;;;;2.51;62.21;100991.13;10421188;28;20127;-68